Time;durP1;ratioP1;P1;durP2;ratioP2;P2;SDS_P1;SDS_P2;PMS_P1;PMS_P2;Temp;Humidity;BMP_temperature;BMP_pressure;BME280_temperature;BME280_humidity;BME280_pressure;Samples;Min_cycle;Max_cycle;Signal;HPM_P1;HPM_P2
2022/01/27 00:05:06;;;;;;;;;65.00;47.00;;;;;3.97;100.00;102987.63;5074384;28;44843;-81
2022/01/27 00:07:35;;;;;;;;;65.33;52.00;;;;;3.97;100.00;102987.63;5076355;27;45488;-81
2022/01/27 00:10:29;;;;;;;;;63.67;47.67;;;;;3.97;100.00;102996.38;5077327;27;45308;-82
2022/01/27 00:12:49;;;;;;;;;65.33;50.00;;;;;3.97;100.00;102985.00;5077026;27;44920;-80
2022/01/27 00:15:16;;;;;;;;;62.33;46.67;;;;;3.99;100.00;102988.47;5105813;27;45318;-81
2022/01/27 00:17:48;;;;;;;;;61.33;46.33;;;;;4.01;100.00;102987.59;5120946;27;45094;-81
2022/01/27 00:20:14;;;;;;;;;61.00;45.67;;;;;4.05;100.00;102980.56;5099057;27;44770;-81
2022/01/27 00:22:42;;;;;;;;;66.00;45.00;;;;;4.06;100.00;102983.22;5118291;27;45417;-80
2022/01/27 00:25:08;;;;;;;;;61.33;45.67;;;;;4.07;100.00;102979.69;5117058;27;44859;-81
2022/01/27 00:27:34;;;;;;;;;64.00;47.33;;;;;4.10;100.00;102976.16;5119611;27;45135;-81
2022/01/27 00:30:05;;;;;;;;;62.67;48.33;;;;;4.11;100.00;102970.91;5122478;27;44824;-81
2022/01/27 00:32:31;;;;;;;;;61.33;46.67;;;;;4.14;100.00;102970.00;5117487;27;44856;-82
2022/01/27 00:34:58;;;;;;;;;64.67;49.33;;;;;4.16;100.00;102975.25;5117034;27;44966;-80
2022/01/27 00:37:24;;;;;;;;;68.33;46.00;;;;;4.18;100.00;102973.50;5116963;27;45357;-81
2022/01/27 00:39:49;;;;;;;;;59.33;47.00;;;;;4.19;100.00;102970.84;5116979;27;44792;-80
2022/01/27 00:42:14;;;;;;;;;56.67;45.00;;;;;4.21;100.00;102969.13;5117292;27;45227;-81
2022/01/27 00:44:40;;;;;;;;;64.67;48.00;;;;;4.20;100.00;102969.09;5116569;27;44832;-80
2022/01/27 00:47:05;;;;;;;;;65.33;49.00;;;;;4.21;100.00;102968.25;5116691;27;45438;-79
2022/01/27 00:49:31;;;;;;;;;61.33;48.67;;;;;4.23;100.00;102963.84;5116911;27;45340;-81
2022/01/27 00:51:58;;;;;;;;;65.67;45.33;;;;;4.19;100.00;102952.44;5117095;27;45408;-80
2022/01/27 00:54:27;;;;;;;;;62.00;46.33;;;;;4.22;100.00;102948.94;5117108;27;44844;-80
2022/01/27 01:02:03;;;;;;;;;62.67;46.33;;;;;4.22;100.00;102933.16;5118423;27;44822;-80
2022/01/27 01:04:33;;;;;;;;;61.67;46.67;;;;;4.21;100.00;102941.94;5120291;27;44859;-80
2022/01/27 01:06:58;;;;;;;;;63.67;47.33;;;;;4.20;100.00;102924.38;5120309;27;45246;-80
2022/01/27 01:14:56;;;;;;;;;68.33;50.33;;;;;4.19;100.00;102927.91;5120152;27;45379;-78
2022/01/27 01:17:33;;;;;;;;;67.00;52.67;;;;;4.16;100.00;102926.19;5119294;27;45535;-80
2022/01/27 01:20:22;;;;;;;;;85.00;57.33;;;;;4.10;100.00;102937.56;5103072;27;44840;-81
2022/01/27 01:33:59;;;;;;;;;68.67;52.67;;;;;4.01;100.00;102924.50;5038163;28;44774;-81
2022/01/27 01:36:43;;;;;;;;;72.00;49.33;;;;;4.00;100.00;102917.47;5035912;28;45412;-80
2022/01/27 01:39:10;;;;;;;;;75.67;55.33;;;;;4.01;100.00;102927.13;5035926;28;45538;-80
2022/01/27 01:41:36;;;;;;;;;73.67;52.67;;;;;4.01;100.00;102915.69;5036308;28;45502;-79
2022/01/27 01:44:01;;;;;;;;;73.33;53.33;;;;;4.01;100.00;102915.69;5035826;28;45608;-80
2022/01/27 01:46:27;;;;;;;;;68.67;51.00;;;;;4.00;100.00;102906.06;5037534;28;45415;-80
2022/01/27 01:48:52;;;;;;;;;67.33;50.00;;;;;3.96;100.00;102920.09;5038593;28;45124;-81
2022/01/27 01:51:25;;;;;;;;;69.67;53.33;;;;;3.93;100.00;102912.25;5042161;28;44844;-80
2022/01/27 01:53:50;;;;;;;;;66.67;52.33;;;;;3.91;100.00;102921.88;5036822;28;44747;-79
2022/01/27 01:56:16;;;;;;;;;73.67;56.00;;;;;3.89;100.00;102921.91;5036303;28;44964;-81
2022/01/27 01:58:41;;;;;;;;;70.67;54.33;;;;;3.83;100.00;102924.56;5035892;28;44937;-79
2022/01/27 02:01:06;;;;;;;;;71.67;52.33;;;;;3.83;100.00;102914.91;5043839;27;45373;-80
2022/01/27 02:03:32;;;;;;;;;69.67;54.33;;;;;3.79;100.00;102910.53;5119853;27;44760;-80
2022/01/27 02:05:58;;;;;;;;;72.67;55.33;;;;;3.76;100.00;102904.41;5119682;27;44812;-80
2022/01/27 02:18:47;;;;;;;;;71.67;55.33;;;;;3.66;100.00;102894.81;5108752;27;44879;-80
2022/01/27 02:21:12;;;;;;;;;73.00;53.00;;;;;3.68;100.00;102888.69;5123989;27;44811;-80
2022/01/27 02:23:38;;;;;;;;;70.33;55.00;;;;;3.69;100.00;102884.31;5101213;27;45160;-80
2022/01/27 02:26:04;;;;;;;;;69.67;51.67;;;;;3.69;100.00;102886.94;5119135;27;45470;-80
2022/01/27 02:28:29;;;;;;;;;74.33;50.67;;;;;3.69;100.00;102885.19;5118374;27;44882;-79
2022/01/27 02:30:54;;;;;;;;;70.67;53.67;;;;;3.66;100.00;102881.69;5119452;27;45543;-80
2022/01/27 02:33:34;;;;;;;;;74.00;53.00;;;;;3.63;100.00;102881.69;5118971;27;44894;-80
2022/01/27 02:36:02;;;;;;;;;72.00;53.67;;;;;3.64;100.00;102879.06;5119161;27;45319;-80
2022/01/27 02:38:27;;;;;;;;;81.00;54.00;;;;;3.62;100.00;102880.81;5118468;27;45326;-80
2022/01/27 02:40:58;;;;;;;;;74.00;56.33;;;;;3.60;100.00;102874.69;5118535;27;44794;-78
2022/01/27 02:43:24;;;;;;;;;75.00;54.67;;;;;3.60;100.00;102866.81;5118835;27;45403;-80
2022/01/27 02:45:57;;;;;;;;;73.00;52.33;;;;;3.58;100.00;102872.09;5118984;27;44846;-80
2022/01/27 02:48:22;;;;;;;;;66.67;51.67;;;;;3.58;100.00;102873.84;5116229;27;45362;-80
2022/01/27 02:50:47;;;;;;;;;67.67;49.67;;;;;3.56;100.00;102865.06;5086849;27;45316;-79
2022/01/27 02:53:13;;;;;;;;;73.00;53.00;;;;;3.57;100.00;102867.69;5099131;27;44799;-80
2022/01/27 02:55:38;;;;;;;;;73.33;53.67;;;;;3.56;100.00;102860.69;5079463;27;44968;-80
2022/01/27 02:58:04;;;;;;;;;68.67;50.33;;;;;3.58;100.00;102855.44;5097908;27;45347;-80
2022/01/27 03:00:31;;;;;;;;;66.33;47.33;;;;;3.59;100.00;102865.06;5079545;27;45254;-80
2022/01/27 03:02:56;;;;;;;;;69.67;53.00;;;;;3.57;100.00;102866.81;5098006;27;44764;-81
2022/01/27 03:05:22;;;;;;;;;72.00;53.33;;;;;3.56;100.00;102860.69;5097797;27;44873;-80
2022/01/27 03:07:48;;;;;;;;;69.00;50.67;;;;;3.58;100.00;102863.31;5079528;27;45330;-80
2022/01/27 03:10:17;;;;;;;;;73.67;56.33;;;;;3.56;100.00;102860.69;5097441;27;44786;-80
2022/01/27 03:12:43;;;;;;;;;60.67;48.00;;;;;3.54;100.00;102854.56;5079568;27;44902;-80
2022/01/27 03:15:11;;;;;;;;;68.00;51.67;;;;;3.49;100.00;102856.34;5097443;27;45339;-80
2022/01/27 03:17:36;;;;;;;;;70.67;49.67;;;;;3.49;100.00;102855.47;5097834;27;45541;-81
2022/01/27 03:20:02;;;;;;;;;65.00;48.33;;;;;3.48;100.00;102849.34;5098524;27;44922;-80
2022/01/27 03:22:28;;;;;;;;;63.33;48.67;;;;;3.46;100.00;102858.09;5103994;27;44872;-79
2022/01/27 03:24:53;;;;;;;;;63.33;44.67;;;;;3.45;100.00;102849.34;5098687;27;44947;-80
2022/01/27 03:27:23;;;;;;;;;65.33;50.67;;;;;3.42;100.00;102846.72;5078862;27;46704;-80
2022/01/27 03:29:48;;;;;;;;;69.67;53.67;;;;;3.42;100.00;102857.22;5079233;27;44748;-80
2022/01/27 03:32:14;;;;;;;;;73.33;54.33;;;;;3.42;100.00;102851.09;5097705;27;45270;-80
2022/01/27 03:34:40;;;;;;;;;68.00;50.00;;;;;3.40;100.00;102853.75;5097506;27;45379;-81
2022/01/27 03:37:05;;;;;;;;;69.33;52.67;;;;;3.41;100.00;102857.25;5097502;27;45062;-80
2022/01/27 03:39:31;;;;;;;;;71.67;49.33;;;;;3.40;100.00;102855.50;5096950;27;44795;-81
2022/01/27 03:41:57;;;;;;;;;65.67;51.67;;;;;3.40;100.00;102856.38;5097395;27;45526;-80
2022/01/27 03:44:23;;;;;;;;;67.00;50.67;;;;;3.43;100.00;102855.47;5097630;27;44974;-80
2022/01/27 03:46:50;;;;;;;;;66.67;51.67;;;;;3.44;100.00;102855.50;5096963;27;45173;-80
2022/01/27 03:49:16;;;;;;;;;67.33;50.00;;;;;3.46;100.00;102852.84;5097160;27;44834;-79
2022/01/27 03:51:42;;;;;;;;;65.33;49.67;;;;;3.43;100.00;102852.84;5079958;27;44843;-80
2022/01/27 03:54:08;;;;;;;;;66.33;49.00;;;;;3.42;100.00;102851.97;5098406;27;45272;-80
2022/01/27 03:56:34;;;;;;;;;59.33;48.00;;;;;3.40;100.00;102850.25;5098989;27;45347;-79
2022/01/27 03:58:59;;;;;;;;;61.00;48.00;;;;;3.34;100.00;102838.88;5099067;27;44831;-80
2022/01/27 04:01:24;;;;;;;;;68.00;50.33;;;;;3.34;100.00;102844.13;5078900;27;45273;-79
2022/01/27 04:03:53;;;;;;;;;68.67;50.00;;;;;3.35;100.00;102845.88;5097420;27;44694;-80
2022/01/27 04:06:22;;;;;;;;;66.33;49.33;;;;;3.38;100.00;102849.34;5096915;27;45483;-81
2022/01/27 04:08:48;;;;;;;;;71.00;52.00;;;;;3.36;100.00;102857.25;5096600;27;45407;-80
2022/01/27 04:11:13;;;;;;;;;62.33;44.67;;;;;3.37;100.00;102860.75;5061569;27;44902;-80
2022/01/27 04:13:38;;;;;;;;;67.67;49.67;;;;;3.38;100.00;102860.75;5096668;27;45299;-80
2022/01/27 04:16:04;;;;;;;;;66.00;51.00;;;;;3.41;100.00;102852.00;5096435;27;44902;-79
2022/01/27 04:18:30;;;;;;;;;59.00;48.00;;;;;3.40;100.00;102856.38;5096821;27;44747;-81
2022/01/27 04:20:56;;;;;;;;;63.67;48.00;;;;;3.40;100.00;102845.00;5096890;27;44848;-80
2022/01/27 04:23:22;;;;;;;;;71.67;48.67;;;;;3.39;100.00;102851.13;5096750;27;44794;-80
2022/01/27 04:25:47;;;;;;;;;70.33;53.33;;;;;3.42;100.00;102857.22;5096573;27;45360;-80
2022/01/27 04:28:18;;;;;;;;;67.33;51.33;;;;;3.38;100.00;102849.34;5097034;27;45454;-80
2022/01/27 04:30:44;;;;;;;;;69.00;51.33;;;;;3.38;100.00;102851.97;5083244;27;44822;-81
2022/01/27 04:33:09;;;;;;;;;64.33;43.33;;;;;3.39;100.00;102848.50;5103837;27;44757;-80
2022/01/27 04:35:40;;;;;;;;;64.00;46.00;;;;;3.40;100.00;102847.63;5096196;27;45426;-79
2022/01/27 04:40:49;;;;;;;;;71.67;49.00;;;;;3.38;100.00;102847.59;5079346;27;44859;-81
2022/01/27 04:48:23;;;;;;;;;72.00;50.67;;;;;3.38;100.00;102862.50;5101153;27;44843;-79
2022/01/27 04:50:50;;;;;;;;;68.00;51.33;;;;;3.38;100.00;102857.25;5117610;27;45437;-79
2022/01/27 04:53:31;;;;;;;;;72.67;52.67;;;;;3.38;100.00;102854.63;5098569;27;44871;-80
2022/01/27 04:55:59;;;;;;;;;64.33;47.67;;;;;3.38;100.00;102841.47;5120241;27;45242;-83
2022/01/27 04:58:31;;;;;;;;;62.33;46.67;;;;;3.38;100.00;102842.34;5100140;27;44844;-81
2022/01/27 05:01:00;;;;;;;;;57.67;44.33;;;;;3.43;100.00;102855.47;5098694;27;45460;-82
2022/01/27 05:03:51;;;;;;;;;66.00;48.00;;;;;3.46;100.00;102851.09;5100773;27;45046;-82
2022/01/27 05:06:11;;;;;;;;;66.00;44.33;;;;;3.47;100.00;102844.06;5117631;27;45125;-82
2022/01/27 05:08:36;;;;;;;;;67.00;47.00;;;;;3.50;100.00;102839.69;5123141;27;44800;-81
2022/01/27 05:11:12;;;;;;;;;63.67;50.00;;;;;3.49;100.00;102832.69;5122512;27;44796;-82
2022/01/27 05:13:50;;;;;;;;;66.67;48.67;;;;;3.52;100.00;102834.41;5116272;27;44751;-81
2022/01/27 05:16:15;;;;;;;;;70.33;49.00;;;;;3.53;100.00;102826.56;5098337;27;45243;-81
2022/01/27 05:18:41;;;;;;;;;62.33;48.00;;;;;3.53;100.00;102817.78;5116580;27;44750;-82
2022/01/27 05:21:06;;;;;;;;;63.67;50.00;;;;;3.50;100.00;102828.31;5116713;27;45404;-82
2022/01/27 05:23:31;;;;;;;;;62.33;50.00;;;;;3.46;100.00;102831.81;5116888;27;44935;-83
2022/01/27 05:25:57;;;;;;;;;61.00;48.00;;;;;3.44;100.00;102836.22;5116973;27;45747;-82
2022/01/27 05:28:23;;;;;;;;;68.67;51.67;;;;;3.43;100.00;102832.69;5117655;27;45256;-82
2022/01/27 05:30:48;;;;;;;;;62.67;48.33;;;;;3.43;100.00;102837.94;5097491;27;44855;-83
2022/01/27 05:33:14;;;;;;;;;68.00;48.67;;;;;3.42;100.00;102835.34;5116565;27;44965;-82
2022/01/27 05:35:39;;;;;;;;;61.00;44.67;;;;;3.42;100.00;102833.59;5116295;27;45577;-80
2022/01/27 05:38:05;;;;;;;;;56.33;46.00;;;;;3.42;100.00;102837.97;5116615;27;44797;-83
2022/01/27 05:40:30;;;;;;;;;62.33;47.67;;;;;3.42;100.00;102830.09;5117321;27;44974;-81
2022/01/27 05:42:56;;;;;;;;;60.33;46.33;;;;;3.42;100.00;102827.47;5098670;27;44823;-81
2022/01/27 05:45:21;;;;;;;;;61.67;42.67;;;;;3.42;100.00;102824.84;5105790;27;45895;-83
2022/01/27 05:47:46;;;;;;;;;65.00;48.67;;;;;3.39;100.00;102827.50;5118295;27;44796;-83
2022/01/27 05:50:12;;;;;;;;;68.33;46.33;;;;;3.38;100.00;102831.84;5119646;27;45276;-82
2022/01/27 05:52:38;;;;;;;;;58.67;43.00;;;;;3.40;100.00;102826.59;5119831;27;44859;-82
2022/01/27 05:55:04;;;;;;;;;66.67;45.33;;;;;3.42;100.00;102828.31;5119380;27;45136;-81
2022/01/27 05:57:30;;;;;;;;;64.00;50.33;;;;;3.47;100.00;102823.94;5101448;27;45386;-82
2022/01/27 05:59:55;;;;;;;;;37.00;34.67;;;;;3.47;100.00;102818.69;5119644;27;44797;-82
2022/01/27 06:02:21;;;;;;;;;61.67;48.00;;;;;3.49;100.00;102810.81;5101292;27;44985;-83
2022/01/27 06:04:46;;;;;;;;;44.67;31.33;;;;;3.47;100.00;102818.69;5119304;27;45355;-83
2022/01/27 06:07:12;;;;;;;;;68.33;45.00;;;;;3.48;100.00;102823.06;5120269;27;45346;-82
2022/01/27 06:09:37;;;;;;;;;63.67;46.33;;;;;3.45;100.00;102819.56;5122430;27;44791;-82
2022/01/27 06:12:04;;;;;;;;;54.33;41.00;;;;;3.45;100.00;102828.34;5123137;27;44842;-83
2022/01/27 06:14:30;;;;;;;;;59.67;46.67;;;;;3.45;100.00;102833.59;5120519;27;45393;-82
2022/01/27 06:16:55;;;;;;;;;59.00;42.33;;;;;3.45;100.00;102838.84;5120426;27;44764;-83
2022/01/27 06:19:25;;;;;;;;;69.33;50.00;;;;;3.44;100.00;102836.22;5121790;27;44832;-83
2022/01/27 06:21:51;;;;;;;;;52.33;41.00;;;;;3.46;100.00;102842.34;5092357;27;44959;-83
2022/01/27 06:24:16;;;;;;;;;59.33;43.67;;;;;3.49;100.00;102839.72;5108900;27;45217;-83
2022/01/27 06:26:42;;;;;;;;;63.00;47.67;;;;;3.49;100.00;102840.59;5122723;27;45436;-83
2022/01/27 06:29:07;;;;;;;;;59.33;43.33;;;;;3.51;100.00;102836.19;5121584;27;44850;-85
2022/01/27 06:31:32;;;;;;;;;46.67;32.33;;;;;3.53;100.00;102844.03;5101853;27;44933;-83
2022/01/27 06:33:58;;;;;;;;;57.00;43.00;;;;;3.54;100.00;102843.19;5119221;27;45189;-81
2022/01/27 06:36:23;;;;;;;;;57.67;43.00;;;;;3.56;100.00;102849.31;5100864;27;44876;-84
2022/01/27 06:38:48;;;;;;;;;66.00;46.00;;;;;3.58;100.00;102847.56;5119178;27;45072;-81
2022/01/27 06:41:14;;;;;;;;;59.33;46.00;;;;;3.59;100.00;102844.91;5100630;27;45501;-83
2022/01/27 06:43:40;;;;;;;;;57.33;46.33;;;;;3.53;100.00;102850.22;5119071;27;45582;-83
2022/01/27 06:46:06;;;;;;;;;63.67;47.00;;;;;3.55;100.00;102858.94;5100335;27;44911;-81
2022/01/27 06:48:31;;;;;;;;;53.00;43.00;;;;;3.56;100.00;102852.81;5113161;27;45495;-82
2022/01/27 06:50:56;;;;;;;;;60.00;47.00;;;;;3.59;100.00;102850.19;5098245;27;44813;-83
2022/01/27 06:53:23;;;;;;;;;59.67;45.00;;;;;3.60;100.00;102843.16;5098634;27;45038;-83
2022/01/27 06:55:49;;;;;;;;;53.33;40.00;;;;;3.60;100.00;102846.66;5097838;27;45324;-83
2022/01/27 06:58:14;;;;;;;;;54.67;43.33;;;;;3.59;100.00;102852.81;5125380;27;44700;-83
2022/01/27 07:00:40;;;;;;;;;64.33;44.00;;;;;3.63;100.00;102850.13;5106280;27;45042;-81
2022/01/27 07:03:05;;;;;;;;;63.00;48.33;;;;;3.64;100.00;102846.66;5122960;27;45154;-82
2022/01/27 07:05:32;;;;;;;;;67.33;48.33;;;;;3.60;100.00;102851.03;5119759;27;44970;-82
2022/01/27 07:07:58;;;;;;;;;62.67;45.67;;;;;3.61;100.00;102858.03;5118107;27;45259;-81
2022/01/27 07:10:24;;;;;;;;;60.00;47.00;;;;;3.64;100.00;102865.06;5118698;27;44841;-82
2022/01/27 07:12:51;;;;;;;;;54.33;39.67;;;;;3.64;100.00;102858.03;5117378;27;45248;-81
2022/01/27 07:15:16;;;;;;;;;54.67;42.67;;;;;3.70;100.00;102859.75;5099727;27;45355;-82
2022/01/27 07:17:42;;;;;;;;;54.33;44.33;;;;;3.69;100.00;102864.16;5118419;27;45235;-82
2022/01/27 07:20:08;;;;;;;;;64.67;48.00;;;;;3.72;100.00;102865.88;5118544;27;45359;-81
2022/01/27 07:22:35;;;;;;;;;56.00;46.00;;;;;3.75;100.00;102861.50;5115505;27;45379;-82
2022/01/27 07:25:03;;;;;;;;;60.33;46.00;;;;;3.76;100.00;102857.09;5100909;27;44748;-83
2022/01/27 07:27:28;;;;;;;;;60.67;46.67;;;;;3.77;100.00;102864.09;5118327;27;45381;-82
2022/01/27 07:29:54;;;;;;;;;62.33;46.00;;;;;3.76;100.00;102865.84;5118295;27;44878;-82
2022/01/27 07:32:19;;;;;;;;;68.00;46.33;;;;;3.77;100.00;102869.34;5117811;27;45401;-83
2022/01/27 07:34:44;;;;;;;;;61.33;46.00;;;;;3.76;100.00;102855.34;5099072;27;44800;-83
2022/01/27 07:37:10;;;;;;;;;62.33;41.67;;;;;3.78;100.00;102852.72;5099915;27;45232;-81
2022/01/27 07:39:35;;;;;;;;;56.33;43.00;;;;;3.77;100.00;102856.22;5124536;27;44904;-82
2022/01/27 07:42:01;;;;;;;;;58.67;46.00;;;;;3.77;100.00;102846.59;5125450;27;45272;-82
2022/01/27 07:44:27;;;;;;;;;59.33;46.00;;;;;3.78;100.00;102855.34;5124496;27;45324;-81
2022/01/27 07:46:54;;;;;;;;;51.67;38.33;;;;;3.80;100.00;102853.59;5118147;27;45417;-81
2022/01/27 07:49:19;;;;;;;;;53.67;37.00;;;;;3.79;100.00;102839.56;5118417;27;44865;-80
2022/01/27 07:51:44;;;;;;;;;61.67;48.00;;;;;3.78;100.00;102861.50;5117639;27;45339;-81
2022/01/27 07:54:10;;;;;;;;;60.00;47.67;;;;;3.78;100.00;102863.25;5117670;27;45224;-81
2022/01/27 07:56:36;;;;;;;;;59.33;46.00;;;;;3.79;100.00;102855.34;5117424;27;44706;-80
2022/01/27 07:59:03;;;;;;;;;61.00;43.00;;;;;3.82;100.00;102864.94;5117451;27;45417;-81
2022/01/27 08:01:28;;;;;;;;;54.67;44.33;;;;;3.84;100.00;102850.94;5118368;27;45568;-83
2022/01/27 08:03:55;;;;;;;;;60.00;43.67;;;;;3.85;100.00;102855.31;5122062;27;45493;-83
2022/01/27 08:06:21;;;;;;;;;58.00;45.33;;;;;3.85;100.00;102854.44;5122647;27;45284;-81
2022/01/27 08:08:48;;;;;;;;;66.00;49.33;;;;;3.86;100.00;102859.66;5120260;27;45394;-82
2022/01/27 08:11:13;;;;;;;;;64.33;49.67;;;;;3.88;100.00;102861.44;5119736;27;45258;-82
2022/01/27 08:13:39;;;;;;;;;52.67;41.67;;;;;3.90;100.00;102860.53;5120275;27;44903;-82
2022/01/27 08:16:04;;;;;;;;;60.33;42.67;;;;;3.91;100.00;102861.41;5100308;27;45713;-81
2022/01/27 08:18:30;;;;;;;;;53.67;41.33;;;;;3.90;100.00;102860.53;5118489;27;44807;-84
2022/01/27 08:20:55;;;;;;;;;60.33;46.67;;;;;3.92;100.00;102858.78;5118385;27;45513;-83
2022/01/27 08:23:21;;;;;;;;;55.67;44.33;;;;;3.94;100.00;102867.53;5123005;27;45441;-80
2022/01/27 08:25:49;;;;;;;;;60.00;46.33;;;;;3.95;100.00;102864.03;5120677;27;45492;-80
2022/01/27 08:28:23;;;;;;;;;57.67;42.00;;;;;3.98;100.00;102866.66;5117899;27;45261;-79
2022/01/27 08:30:51;;;;;;;;;62.33;46.67;;;;;3.97;100.00;102864.91;5117520;27;45087;-79
2022/01/27 08:33:19;;;;;;;;;64.00;46.33;;;;;3.95;100.00;102864.03;5117801;27;44772;-80
2022/01/27 08:35:44;;;;;;;;;60.67;47.33;;;;;3.99;100.00;102865.75;5117424;27;45389;-80
2022/01/27 08:38:09;;;;;;;;;62.33;43.33;;;;;4.01;100.00;102866.66;5117056;27;44979;-81
2022/01/27 08:40:35;;;;;;;;;64.00;49.00;;;;;4.05;100.00;102870.09;5117151;27;45431;-81
2022/01/27 08:43:01;;;;;;;;;60.33;45.33;;;;;4.09;100.00;102866.56;5117096;27;45517;-80
2022/01/27 08:45:27;;;;;;;;;61.00;42.33;;;;;4.11;100.00;102863.06;5117004;27;44930;-80
2022/01/27 08:47:54;;;;;;;;;60.67;44.33;;;;;4.15;100.00;102874.44;5098013;27;44816;-80
2022/01/27 08:50:21;;;;;;;;;61.67;45.67;;;;;4.19;100.00;102870.91;5116510;27;45485;-81
2022/01/27 08:52:47;;;;;;;;;49.67;39.67;;;;;4.20;100.00;102870.00;5117169;27;44747;-79
2022/01/27 08:55:13;;;;;;;;;54.00;43.00;;;;;4.25;100.00;102868.22;5116817;27;45359;-81
2022/01/27 08:57:39;;;;;;;;;57.00;45.67;;;;;4.32;100.00;102867.31;5098003;27;45558;-81
2022/01/27 09:00:07;;;;;;;;;59.67;47.00;;;;;4.38;100.00;102861.13;5116165;27;45385;-81
2022/01/27 09:02:33;;;;;;;;;60.67;48.33;;;;;4.37;100.00;102854.13;5116756;27;44878;-83
2022/01/27 09:04:58;;;;;;;;;60.33;41.00;;;;;4.39;100.00;102855.84;5117821;27;44780;-81
2022/01/27 09:07:23;;;;;;;;;58.33;45.67;;;;;4.44;100.00;102849.69;5100729;27;45617;-80
2022/01/27 09:09:49;;;;;;;;;51.67;41.00;;;;;4.47;100.00;102847.91;5117257;27;45428;-81
2022/01/27 09:12:15;;;;;;;;;58.00;42.33;;;;;4.50;100.00;102854.94;5116345;27;45484;-80
2022/01/27 09:14:42;;;;;;;;;67.33;46.00;;;;;4.53;100.00;102846.97;5116858;27;45490;-80
2022/01/27 09:17:11;;;;;;;;;57.67;43.67;;;;;4.60;100.00;102840.81;5098260;27;45229;-81
2022/01/27 09:19:41;;;;;;;;;60.00;46.00;;;;;4.63;100.00;102839.00;5116415;27;44999;-81
2022/01/27 09:22:12;;;;;;;;;59.33;45.67;;;;;4.72;100.00;102835.41;5116004;27;44891;-81
2022/01/27 09:24:59;;;;;;;;;64.00;48.33;;;;;4.79;100.00;102837.13;5120082;27;45381;-80
2022/01/27 09:27:26;;;;;;;;;60.67;44.33;;;;;4.82;100.00;102828.31;5119821;27;45494;-80
2022/01/27 09:29:53;;;;;;;;;67.00;49.00;;;;;4.88;100.00;102817.72;5120026;27;45378;-80
2022/01/27 09:32:19;;;;;;;;;64.33;47.00;;;;;4.94;100.00;102828.22;5119717;27;44792;-80
2022/01/27 09:34:46;;;;;;;;;67.67;47.67;;;;;4.99;100.00;102836.94;5100735;27;45349;-82
2022/01/27 09:37:12;;;;;;;;;60.33;47.67;;;;;5.04;100.00;102835.13;5119470;27;44804;-81
2022/01/27 09:39:38;;;;;;;;;58.67;44.33;;;;;5.10;100.00;102837.69;5095393;27;45167;-80
2022/01/27 09:42:06;;;;;;;;;54.00;41.00;;;;;5.20;100.00;102834.97;5099410;27;45341;-82
2022/01/27 09:44:33;;;;;;;;;56.67;42.67;;;;;5.29;100.00;102832.22;5100148;27;44859;-83
2022/01/27 09:47:05;;;;;;;;;58.67;42.33;;;;;5.33;100.00;102829.53;5108366;27;45443;-82
2022/01/27 09:49:36;;;;;;;;;60.00;44.33;;;;;5.39;100.00;102825.97;5108254;27;45152;-82
2022/01/27 09:52:02;;;;;;;;;60.33;46.00;;;;;5.51;100.00;102832.84;5100582;27;44894;-82
2022/01/27 09:54:28;;;;;;;;;60.67;47.00;;;;;5.51;100.00;102823.19;5106836;27;44785;-84
2022/01/27 09:56:56;;;;;;;;;63.67;48.67;;;;;5.57;100.00;102820.47;5102725;27;44862;-83
2022/01/27 09:59:22;;;;;;;;;59.67;44.33;;;;;5.65;100.00;102823.00;5124064;27;45336;-83
2022/01/27 10:02:08;;;;;;;;;63.67;48.67;;;;;5.71;100.00;102827.34;5131842;27;45801;-84
2022/01/27 10:04:59;;;;;;;;;53.33;42.67;;;;;5.74;100.00;102832.56;5140880;27;44811;-85
2022/01/27 10:07:28;;;;;;;;;57.00;45.00;;;;;5.85;100.00;102817.44;5121960;27;45095;-84
2022/01/27 10:10:08;;;;;;;;;57.00;41.67;;;;;5.86;100.00;102819.22;5116623;27;45439;-85
2022/01/27 10:12:41;;;;;;;;;60.00;45.33;;;;;5.93;100.00;102823.53;5134157;27;44791;-86
2022/01/27 10:15:11;;;;;;;;;65.00;47.67;;;;;6.01;100.00;102818.16;5108334;27;44773;-87
2022/01/27 10:17:39;;;;;;;;;65.33;48.33;;;;;6.10;100.00;102818.91;5107334;27;45025;-86
2022/01/27 10:20:18;;;;;;;;;58.00;45.33;;;;;6.11;100.00;102825.91;5106173;27;46176;-88
2022/01/27 10:23:17;;;;;;;;;62.33;44.67;;;;;6.20;100.00;102826.69;5125489;27;44822;-85
2022/01/27 10:25:47;;;;;;;;;57.00;45.33;;;;;6.30;100.00;102828.28;5124007;27;44745;-85
2022/01/27 10:31:19;;;;;;;;;56.00;40.00;;;;;6.21;100.00;102824.00;5104668;27;45244;-85
2022/01/27 10:33:49;;;;;;;;;61.00;42.67;;;;;6.23;100.00;102821.34;5115542;27;44748;-85
2022/01/27 10:36:23;;;;;;;;;60.67;44.67;;;;;6.31;100.00;102833.53;5122659;27;44748;-84
2022/01/27 10:38:56;;;;;;;;;57.67;46.00;;;;;6.25;100.00;102823.06;5123531;27;45249;-85
2022/01/27 10:41:24;;;;;;;;;52.67;42.67;;;;;6.32;100.00;102826.47;5103461;27;45286;-86
2022/01/27 10:43:50;;;;;;;;;54.33;41.00;;;;;6.32;100.00;102822.06;5093397;27;44812;-85
2022/01/27 10:46:28;;;;;;;;;56.33;45.67;;;;;6.38;100.00;102815.81;5123233;27;44756;-84
2022/01/27 10:49:08;;;;;;;;;52.67;40.67;;;;;6.45;100.00;102812.19;5125847;27;45306;-86
2022/01/27 10:51:44;;;;;;;;;60.00;48.00;;;;;6.43;100.00;102811.31;5125481;27;45240;-85
2022/01/27 10:54:22;;;;;;;;;54.33;39.67;;;;;6.41;100.00;102815.78;5121888;27;45180;-86
2022/01/27 10:56:48;;;;;;;;;56.33;44.00;;;;;6.43;100.00;102811.31;5102485;27;44861;-85
2022/01/27 10:59:17;;;;;;;;;54.00;41.67;;;;;6.43;100.00;102806.03;5081537;27;45381;-84
2022/01/27 11:01:50;;;;;;;;;55.33;40.67;;;;;6.49;100.00;102802.47;5102812;27;45192;-85
2022/01/27 11:04:18;;;;;;;;;56.00;41.67;;;;;6.56;100.00;102807.59;5081900;27;45318;-86
2022/01/27 11:06:58;;;;;;;;;54.00;43.00;;;;;6.63;100.00;102814.53;5112772;27;45409;-85
2022/01/27 11:09:25;;;;;;;;;53.33;40.00;;;;;6.66;100.00;102809.19;5125076;27;44832;-86
2022/01/27 11:12:05;;;;;;;;;59.67;41.67;;;;;6.63;100.00;102809.25;5127050;27;45286;-87
2022/01/27 11:14:33;;;;;;;;;55.33;43.33;;;;;6.57;100.00;102817.25;5128259;27;45294;-86
2022/01/27 11:17:00;;;;;;;;;53.67;39.33;;;;;6.61;100.00;102815.44;5125323;27;44867;-86
2022/01/27 11:27:37;;;;;;;;;53.00;40.33;;;;;6.66;100.00;102817.09;5120824;27;45516;-86
2022/01/27 11:30:08;;;;;;;;;44.00;39.33;;;;;6.51;100.00;102814.72;5120967;27;45465;-87
2022/01/27 11:32:45;;;;;;;;;53.33;43.67;;;;;6.55;100.00;102807.63;5121326;27;45232;-84
2022/01/27 11:35:23;;;;;;;;;52.00;42.00;;;;;6.60;100.00;102797.88;5121780;27;44797;-86
2022/01/27 11:37:51;;;;;;;;;59.33;42.33;;;;;6.62;100.00;102806.63;5101133;27;44833;-85
2022/01/27 11:40:20;;;;;;;;;56.33;44.33;;;;;6.61;100.00;102792.53;5119986;27;44900;-86
2022/01/27 11:42:58;;;;;;;;;59.33;44.33;;;;;6.62;100.00;102789.03;5102105;27;46996;-88
2022/01/27 11:45:30;;;;;;;;;54.67;42.33;;;;;6.63;100.00;102781.97;5120179;27;44875;-87
2022/01/27 11:48:07;;;;;;;;;52.67;43.00;;;;;6.67;100.00;102783.63;5117846;27;44760;-86
2022/01/27 11:50:47;;;;;;;;;58.00;43.00;;;;;6.71;100.00;102782.69;5120588;27;45422;-85
2022/01/27 11:53:30;;;;;;;;;55.67;43.33;;;;;6.72;100.00;102773.88;5105647;27;47525;-85
2022/01/27 11:56:46;;;;;;;;;;;;;;;;;;;;;
2022/01/27 11:59:12;;;;;;;;;47.33;38.33;;;;;6.85;100.00;102761.31;5120496;27;69007;-86
2022/01/27 12:01:38;;;;;;;;;56.67;41.67;;;;;6.98;100.00;102760.19;5121913;27;45223;-85
2022/01/27 12:04:07;;;;;;;;;47.33;41.00;;;;;7.08;100.00;102764.38;5121089;27;45051;-85
2022/01/27 12:07:01;;;;;;;;;60.33;45.00;;;;;7.22;100.00;102764.09;5120056;27;45543;-86
2022/01/27 12:09:29;;;;;;;;;54.33;42.00;;;;;7.32;100.00;102760.38;5102245;27;45331;-85